Time;durP1;ratioP1;P1;durP2;ratioP2;P2;SDS_P1;SDS_P2;PMS_P1;PMS_P2;Temp;Humidity;BMP_temperature;BMP_pressure;BME280_temperature;BME280_humidity;BME280_pressure;Samples;Min_cycle;Max_cycle;Signal;HPM_P1;HPM_P2
2023/12/29 00:02:10;;;;;;;7.87;1.67;;;10.20;99.90;;;;;;5095193;28;20048;-60
2023/12/29 00:04:36;;;;;;;11.37;1.60;;;10.20;99.90;;;;;;5095145;28;20044;-60
2023/12/29 00:07:02;;;;;;;7.30;1.10;;;10.20;99.90;;;;;;5094068;28;20051;-60
2023/12/29 00:09:28;;;;;;;6.07;1.65;;;10.30;99.90;;;;;;5094966;28;20048;-61
2023/12/29 00:11:57;;;;;;;6.20;1.83;;;10.30;99.90;;;;;;5095175;28;20470;-60
2023/12/29 00:14:22;;;;;;;5.30;1.02;;;10.30;99.90;;;;;;5095146;28;20403;-60
2023/12/29 00:16:48;;;;;;;5.63;1.57;;;10.30;99.90;;;;;;5094869;28;20040;-60
2023/12/29 00:19:14;;;;;;;4.10;1.27;;;10.40;99.90;;;;;;5095065;28;20036;-60
2023/12/29 00:21:39;;;;;;;4.97;1.20;;;10.30;99.90;;;;;;5093923;28;20548;-60
2023/12/29 00:24:05;;;;;;;6.87;2.07;;;10.30;99.90;;;;;;5094755;28;20047;-60
2023/12/29 00:26:31;;;;;;;8.27;1.65;;;10.30;99.90;;;;;;5094820;28;20116;-61
2023/12/29 00:28:57;;;;;;;8.18;1.92;;;10.40;99.90;;;;;;5094708;28;20060;-60
2023/12/29 00:31:23;;;;;;;6.10;1.10;;;10.40;99.90;;;;;;5094997;28;20052;-62
2023/12/29 00:33:51;;;;;;;8.00;1.77;;;10.30;99.90;;;;;;5093655;28;20071;-61
2023/12/29 00:36:18;;;;;;;7.28;1.60;;;10.40;99.90;;;;;;5094550;28;20117;-60
2023/12/29 00:38:44;;;;;;;9.75;1.05;;;10.30;99.90;;;;;;5094492;28;20150;-61
2023/12/29 00:41:10;;;;;;;3.67;0.98;;;10.30;99.90;;;;;;5094934;28;20075;-60
2023/12/29 00:43:35;;;;;;;7.93;1.23;;;10.30;99.90;;;;;;5094658;28;20131;-60
2023/12/29 00:46:03;;;;;;;10.03;1.47;;;10.30;99.90;;;;;;5094399;28;20050;-61
2023/12/29 00:48:29;;;;;;;7.00;1.15;;;10.30;99.90;;;;;;5094513;28;20052;-61
2023/12/29 00:50:55;;;;;;;5.93;1.40;;;10.20;99.90;;;;;;5093291;28;20073;-60
2023/12/29 00:53:20;;;;;;;5.77;1.23;;;10.20;99.90;;;;;;5094398;28;20052;-59
2023/12/29 00:55:46;;;;;;;8.77;1.17;;;10.10;99.90;;;;;;5094372;28;20044;-59
2023/12/29 00:58:12;;;;;;;7.27;1.23;;;10.10;99.90;;;;;;5094336;28;20538;-60
2023/12/29 01:00:37;;;;;;;6.13;1.80;;;10.00;99.90;;;;;;5094296;28;20130;-59
2023/12/29 01:03:03;;;;;;;9.80;1.33;;;10.00;99.90;;;;;;5093987;28;20044;-59
2023/12/29 01:05:29;;;;;;;8.25;1.20;;;9.90;99.90;;;;;;5093938;28;20437;-58
2023/12/29 01:07:55;;;;;;;7.47;1.50;;;10.00;99.90;;;;;;5094742;28;20048;-61
2023/12/29 01:10:21;;;;;;;4.70;0.90;;;10.00;99.90;;;;;;5094088;28;20398;-60
2023/12/29 01:12:47;;;;;;;7.23;1.73;;;9.90;99.90;;;;;;5094167;28;20040;-60
2023/12/29 01:15:13;;;;;;;5.03;1.27;;;10.00;99.90;;;;;;5093279;28;20044;-61
2023/12/29 01:17:38;;;;;;;6.83;1.27;;;9.90;99.90;;;;;;5093968;28;20048;-60
2023/12/29 01:20:05;;;;;;;8.07;1.17;;;9.90;99.90;;;;;;5093930;28;20548;-60
2023/12/29 01:22:30;;;;;;;7.20;0.90;;;9.90;99.90;;;;;;5093805;28;20119;-60
2023/12/29 01:24:58;;;;;;;7.60;1.17;;;10.00;99.90;;;;;;5093798;28;20051;-61
2023/12/29 01:27:24;;;;;;;3.42;0.85;;;10.00;99.90;;;;;;5093671;28;20051;-59
2023/12/29 01:29:49;;;;;;;8.67;1.80;;;9.90;99.90;;;;;;5094216;28;20055;-59
2023/12/29 01:32:15;;;;;;;8.43;1.10;;;10.00;99.90;;;;;;5094036;28;20048;-60
2023/12/29 01:34:41;;;;;;;7.33;2.40;;;9.90;99.90;;;;;;5093712;28;20073;-61
2023/12/29 01:37:06;;;;;;;9.23;2.47;;;9.90;99.90;;;;;;5093796;28;20040;-60
2023/12/29 01:39:34;;;;;;;6.03;1.50;;;9.90;99.90;;;;;;5093534;28;20096;-60
2023/12/29 01:42:00;;;;;;;9.23;1.35;;;9.90;99.90;;;;;;5093683;28;20086;-60
2023/12/29 01:44:26;;;;;;;9.03;1.67;;;9.90;99.90;;;;;;5093743;28;20082;-61
2023/12/29 01:46:54;;;;;;;9.00;1.10;;;9.90;99.90;;;;;;5093787;28;20555;-60
2023/12/29 01:49:21;;;;;;;8.10;1.40;;;9.90;99.90;;;;;;5093530;28;20125;-59
2023/12/29 01:51:51;;;;;;;;;;;9.90;99.90;;;;;;5094039;28;20048;-60
2023/12/29 01:54:19;;;;;;;5.40;1.42;;;9.90;99.90;;;;;;5092391;28;19959;-60
2023/12/29 01:56:46;;;;;;;12.38;1.67;;;9.90;99.90;;;;;;5093578;28;20047;-61
2023/12/29 01:59:12;;;;;;;7.68;1.10;;;9.90;99.90;;;;;;5093557;28;20483;-59
2023/12/29 02:01:39;;;;;;;8.73;1.33;;;10.00;99.90;;;;;;5093821;28;20051;-60
2023/12/29 02:04:06;;;;;;;7.38;1.50;;;10.00;99.90;;;;;;5093561;28;20044;-59
2023/12/29 02:06:34;;;;;;;5.25;1.33;;;10.00;99.90;;;;;;5092178;28;20048;-61
2023/12/29 02:09:01;;;;;;;6.50;1.10;;;9.90;99.90;;;;;;5092310;28;20044;-59
2023/12/29 02:11:26;;;;;;;5.20;0.93;;;9.90;99.90;;;;;;5092387;28;20096;-59
2023/12/29 02:13:52;;;;;;;3.93;0.53;;;9.90;99.90;;;;;;5093440;28;20481;-60
2023/12/29 02:16:48;;;;;;;2.63;0.40;;;9.90;99.90;;;;;;5095492;28;20094;-59
2023/12/29 02:19:35;;;;;;;4.03;0.47;;;9.80;99.90;;;;;;5097494;28;20130;-60
2023/12/29 02:22:01;;;;;;;3.40;0.88;;;9.90;99.90;;;;;;5097202;28;20094;-60
2023/12/29 02:24:26;;;;;;;2.93;0.37;;;9.80;99.90;;;;;;5097251;28;20109;-60
2023/12/29 02:27:02;;;;;;;2.87;0.67;;;9.80;99.90;;;;;;5095939;28;20051;-60
2023/12/29 02:29:31;;;;;;;6.05;0.52;;;9.80;99.90;;;;;;5097304;28;20632;-60
2023/12/29 02:31:59;;;;;;;1.88;0.40;;;9.80;99.90;;;;;;5097074;28;20391;-59
2023/12/29 02:34:27;;;;;;;1.40;0.38;;;9.70;99.90;;;;;;5096055;28;20051;-60
2023/12/29 02:36:54;;;;;;;4.13;0.60;;;9.70;99.90;;;;;;5097006;28;20541;-59
2023/12/29 02:39:20;;;;;;;;;;;9.70;99.90;;;;;;5097265;28;20403;-60
2023/12/29 02:41:46;;;;;;;7.05;0.68;;;9.70;99.90;;;;;;5096953;28;19920;-59
2023/12/29 02:44:11;;;;;;;5.50;0.70;;;9.60;99.90;;;;;;5096667;28;20455;-60
2023/12/29 02:46:37;;;;;;;5.80;0.90;;;9.60;99.90;;;;;;5096791;28;20127;-60
2023/12/29 02:49:03;;;;;;;8.10;0.95;;;9.60;99.90;;;;;;5096735;28;20536;-60
2023/12/29 02:51:29;;;;;;;6.50;0.97;;;9.60;99.90;;;;;;5096828;28;20391;-60
2023/12/29 02:53:54;;;;;;;6.20;0.83;;;9.60;99.90;;;;;;5096850;28;20483;-60
2023/12/29 02:56:21;;;;;;;7.83;1.17;;;9.60;99.90;;;;;;5096364;28;20278;-61
2023/12/29 02:58:48;;;;;;;7.88;1.05;;;9.60;99.90;;;;;;5096620;28;20047;-60
2023/12/29 03:01:14;;;;;;;7.30;1.30;;;9.50;99.90;;;;;;5096593;28;20105;-60
2023/12/29 03:03:39;;;;;;;7.07;1.20;;;9.50;99.90;;;;;;5096542;28;20043;-60
2023/12/29 03:06:06;;;;;;;9.43;0.87;;;9.50;99.90;;;;;;5096427;28;20370;-60
2023/12/29 03:08:32;;;;;;;9.50;1.33;;;9.50;99.90;;;;;;5096453;28;20055;-60
2023/12/29 03:10:58;;;;;;;7.07;1.38;;;9.50;99.90;;;;;;5096313;28;20048;-59
2023/12/29 03:13:24;;;;;;;4.85;1.27;;;9.50;99.90;;;;;;5096580;28;20119;-61
2023/12/29 03:15:50;;;;;;;8.97;1.63;;;9.50;99.90;;;;;;5096069;28;20150;-61
2023/12/29 03:18:16;;;;;;;12.50;1.00;;;9.50;99.90;;;;;;5096349;28;20076;-61
2023/12/29 03:20:42;;;;;;;15.60;2.57;;;9.50;99.90;;;;;;5096384;28;20044;-61
2023/12/29 03:23:07;;;;;;;8.00;1.25;;;9.50;99.90;;;;;;5096185;28;20143;-61
2023/12/29 03:25:33;;;;;;;9.80;1.60;;;9.60;99.90;;;;;;5096069;28;20150;-62
2023/12/29 03:28:00;;;;;;;9.53;2.87;;;9.60;99.90;;;;;;5094411;28;20131;-61
2023/12/29 03:30:26;;;;;;;17.90;2.10;;;9.60;99.90;;;;;;5096124;28;20404;-60
2023/12/29 03:32:51;;;;;;;12.43;1.70;;;9.70;99.90;;;;;;5095086;28;20044;-60
2023/12/29 03:35:17;;;;;;;13.33;2.30;;;9.70;99.90;;;;;;5096203;28;20117;-60
2023/12/29 03:37:43;;;;;;;16.17;1.93;;;9.60;99.90;;;;;;5095759;28;20449;-61
2023/12/29 03:40:09;;;;;;;13.90;2.27;;;9.70;99.90;;;;;;5095699;28;20384;-62
2023/12/29 03:42:35;;;;;;;10.85;1.35;;;9.70;99.90;;;;;;5094776;28;20048;-61
2023/12/29 03:45:01;;;;;;;14.45;2.17;;;9.80;99.90;;;;;;5096002;28;20097;-61
2023/12/29 03:47:26;;;;;;;14.43;2.07;;;9.90;99.90;;;;;;5095582;28;20094;-61
2023/12/29 03:49:52;;;;;;;11.03;1.90;;;9.80;99.90;;;;;;5095639;28;20119;-61
2023/12/29 03:52:17;;;;;;;13.83;2.33;;;9.80;99.90;;;;;;5095773;28;20094;-60
2023/12/29 03:54:43;;;;;;;9.33;2.00;;;9.80;99.90;;;;;;5095386;28;20384;-59
2023/12/29 03:57:09;;;;;;;10.70;1.93;;;9.90;99.90;;;;;;5095160;28;20487;-61
2023/12/29 03:59:37;;;;;;;10.33;2.10;;;9.90;99.90;;;;;;5095433;28;20380;-62
2023/12/29 04:02:03;;;;;;;8.95;1.10;;;9.80;99.90;;;;;;5095617;28;20395;-62
2023/12/29 04:04:29;;;;;;;13.83;2.73;;;9.80;99.90;;;;;;5095356;28;20044;-63
2023/12/29 04:06:54;;;;;;;10.70;1.80;;;9.90;99.90;;;;;;5095129;28;20047;-61
2023/12/29 04:09:21;;;;;;;18.67;2.40;;;9.90;99.90;;;;;;5095111;28;20051;-62
2023/12/29 04:11:46;;;;;;;11.35;1.52;;;9.90;99.90;;;;;;5095040;28;20048;-62
2023/12/29 04:14:12;;;;;;;9.13;1.30;;;9.90;99.90;;;;;;5095086;28;20150;-63
2023/12/29 04:16:39;;;;;;;12.13;1.60;;;9.90;99.90;;;;;;5095211;28;20085;-61
2023/12/29 04:19:05;;;;;;;11.48;1.90;;;9.90;99.90;;;;;;5095106;28;20048;-62
2023/12/29 04:21:30;;;;;;;8.70;1.77;;;10.00;99.90;;;;;;5094954;28;20480;-62
2023/12/29 04:23:56;;;;;;;11.53;1.40;;;9.90;99.90;;;;;;5094931;28;20791;-60
2023/12/29 04:26:22;;;;;;;13.87;1.90;;;10.00;99.90;;;;;;5095085;28;20126;-61
2023/12/29 04:28:47;;;;;;;9.83;1.73;;;9.90;99.90;;;;;;5093889;28;20480;-61
2023/12/29 04:31:13;;;;;;;14.77;1.90;;;9.90;99.90;;;;;;5094819;28;20075;-60
2023/12/29 04:33:38;;;;;;;14.43;2.17;;;9.90;99.90;;;;;;5094968;28;20055;-61
2023/12/29 04:36:05;;;;;;;20.53;2.53;;;9.90;99.90;;;;;;5094869;28;20044;-61
2023/12/29 04:38:30;;;;;;;7.30;1.70;;;9.90;99.90;;;;;;5076510;28;20047;-62
2023/12/29 04:40:56;;;;;;;10.00;1.37;;;9.90;99.90;;;;;;5094294;28;20052;-62
2023/12/29 04:43:21;;;;;;;7.67;1.40;;;9.90;99.90;;;;;;5094567;28;20394;-61
2023/12/29 04:45:47;;;;;;;11.63;1.93;;;9.90;99.90;;;;;;5094532;28;20491;-61
2023/12/29 04:48:13;;;;;;;9.90;1.27;;;9.90;99.90;;;;;;5093529;28;20047;-61
2023/12/29 04:50:38;;;;;;;12.90;2.00;;;9.90;99.90;;;;;;5094433;28;20395;-62
2023/12/29 04:53:04;;;;;;;8.90;2.97;;;9.90;99.90;;;;;;5094252;28;20044;-61
2023/12/29 04:55:30;;;;;;;11.20;1.60;;;9.80;99.90;;;;;;5094186;28;20133;-61
2023/12/29 04:57:55;;;;;;;9.37;1.27;;;9.80;99.90;;;;;;5093200;28;20128;-61
2023/12/29 05:00:21;;;;;;;8.47;1.83;;;9.80;99.90;;;;;;5094497;28;20083;-62
2023/12/29 05:02:47;;;;;;;12.20;2.20;;;9.80;99.90;;;;;;5094235;28;20052;-61
2023/12/29 05:05:12;;;;;;;9.83;1.40;;;9.80;99.90;;;;;;5092962;28;20047;-61
2023/12/29 05:07:38;;;;;;;9.10;2.50;;;9.90;99.90;;;;;;5093878;28;20036;-61
2023/12/29 05:10:04;;;;;;;10.77;1.33;;;9.90;99.90;;;;;;5093908;28;20044;-61
2023/12/29 05:12:30;;;;;;;10.32;1.52;;;9.90;99.90;;;;;;5094109;28;20044;-63
2023/12/29 05:14:55;;;;;;;11.07;2.00;;;9.90;99.90;;;;;;5093064;28;20040;-61
2023/12/29 05:17:21;;;;;;;10.43;1.43;;;9.80;99.90;;;;;;5094299;28;20071;-62
2023/12/29 05:19:47;;;;;;;9.43;0.93;;;9.90;99.90;;;;;;5094221;28;20047;-62
2023/12/29 05:22:17;;;;;;;9.40;1.63;;;9.90;99.90;;;;;;5093979;28;20130;-61
2023/12/29 05:24:43;;;;;;;9.23;1.73;;;9.90;99.90;;;;;;5093823;28;20513;-61
2023/12/29 05:27:08;;;;;;;4.32;1.23;;;9.90;99.90;;;;;;5094299;28;20040;-60
2023/12/29 05:29:34;;;;;;;10.17;2.53;;;9.90;99.90;;;;;;5093660;28;20056;-60
2023/12/29 05:32:02;;;;;;;9.40;1.37;;;9.90;99.90;;;;;;5094140;28;20120;-60
2023/12/29 05:34:28;;;;;;;9.45;1.50;;;9.90;99.90;;;;;;5093785;28;20427;-61
2023/12/29 05:36:53;;;;;;;5.90;1.23;;;9.90;99.90;;;;;;5093839;28;20047;-60
2023/12/29 05:39:19;;;;;;;10.17;1.17;;;9.90;99.90;;;;;;5093641;28;20040;-60
2023/12/29 05:41:45;;;;;;;10.43;1.57;;;9.90;99.90;;;;;;5092604;28;20123;-60
2023/12/29 05:44:10;;;;;;;10.67;1.90;;;9.90;99.90;;;;;;5093706;28;20047;-60
2023/12/29 05:46:36;;;;;;;10.87;2.30;;;9.90;99.90;;;;;;5092604;28;20087;-61
2023/12/29 05:49:02;;;;;;;8.23;2.27;;;9.90;99.90;;;;;;5093565;28;20379;-60
2023/12/29 05:51:28;;;;;;;12.43;2.37;;;9.90;99.90;;;;;;5095766;28;20044;-60
2023/12/29 05:53:53;;;;;;;14.17;2.40;;;9.90;99.90;;;;;;5097773;28;20081;-60
2023/12/29 05:56:19;;;;;;;6.07;1.33;;;9.90;99.90;;;;;;5097773;28;20046;-59
2023/12/29 05:58:45;;;;;;;14.23;2.40;;;9.90;99.90;;;;;;5097590;28;20479;-60
2023/12/29 06:01:11;;;;;;;15.40;2.70;;;9.90;99.90;;;;;;5097702;28;20044;-60
2023/12/29 06:03:37;;;;;;;14.33;1.77;;;9.90;99.90;;;;;;5097704;28;20040;-60
2023/12/29 06:06:03;;;;;;;8.80;1.80;;;9.90;99.90;;;;;;5097606;28;20475;-60
2023/12/29 06:08:28;;;;;;;18.60;2.47;;;9.90;99.90;;;;;;5097449;28;20044;-60
2023/12/29 06:10:54;;;;;;;12.30;1.83;;;9.90;99.90;;;;;;5097597;28;20044;-60
2023/12/29 06:13:20;;;;;;;9.67;1.07;;;9.90;99.90;;;;;;5097544;28;20132;-60
2023/12/29 06:15:45;;;;;;;16.47;2.17;;;9.90;99.90;;;;;;5097303;28;20047;-59
2023/12/29 06:18:11;;;;;;;11.90;1.70;;;9.90;99.90;;;;;;5097415;28;20047;-60
2023/12/29 06:20:37;;;;;;;12.73;2.10;;;9.90;99.90;;;;;;5097335;28;20051;-60
2023/12/29 06:23:03;;;;;;;13.87;2.13;;;9.80;99.90;;;;;;5097356;28;20188;-60
2023/12/29 06:25:28;;;;;;;10.63;1.80;;;9.80;99.90;;;;;;5079529;28;20060;-59
2023/12/29 06:27:55;;;;;;;13.13;2.10;;;9.70;99.90;;;;;;5097212;28;20055;-59
2023/12/29 06:30:20;;;;;;;10.27;1.95;;;9.60;99.90;;;;;;5097350;28;20140;-59
2023/12/29 06:32:46;;;;;;;9.47;1.50;;;9.60;99.90;;;;;;5096957;28;20084;-59
2023/12/29 06:35:12;;;;;;;13.30;2.17;;;9.50;99.90;;;;;;5096928;28;20131;-60
2023/12/29 06:37:41;;;;;;;13.27;2.17;;;9.50;99.90;;;;;;5096860;28;20126;-59
2023/12/29 06:40:07;;;;;;;12.85;1.73;;;9.50;99.90;;;;;;5096951;28;20082;-61
2023/12/29 06:42:33;;;;;;;10.63;2.10;;;9.50;99.90;;;;;;5096990;28;20040;-59
2023/12/29 06:44:59;;;;;;;13.40;2.17;;;9.50;99.90;;;;;;5096221;28;20051;-59
2023/12/29 06:47:25;;;;;;;12.98;1.88;;;9.40;99.90;;;;;;5096773;28;20043;-59
2023/12/29 06:49:50;;;;;;;8.10;1.70;;;9.40;99.90;;;;;;5096631;28;20101;-60
2023/12/29 06:52:16;;;;;;;8.50;1.60;;;9.40;99.90;;;;;;5096610;28;20521;-60
2023/12/29 06:54:42;;;;;;;8.18;1.33;;;9.30;99.90;;;;;;5095790;28;20048;-60
2023/12/29 06:57:08;;;;;;;9.52;1.88;;;9.30;99.90;;;;;;5096614;28;20051;-60
2023/12/29 06:59:34;;;;;;;8.87;1.57;;;9.30;99.90;;;;;;5096641;28;20078;-60
2023/12/29 07:02:00;;;;;;;10.33;1.47;;;9.30;99.90;;;;;;5096345;28;20093;-60
2023/12/29 07:04:25;;;;;;;8.83;1.40;;;9.30;99.90;;;;;;5095343;28;20128;-60
2023/12/29 07:06:51;;;;;;;11.77;2.13;;;9.30;99.90;;;;;;5096143;28;20048;-58
2023/12/29 07:09:17;;;;;;;12.07;1.80;;;9.30;99.90;;;;;;5096650;28;20087;-60
2023/12/29 07:11:48;;;;;;;11.83;2.00;;;9.30;99.90;;;;;;5096363;28;20422;-60
2023/12/29 07:14:13;;;;;;;9.57;1.27;;;9.30;99.90;;;;;;5096239;28;20135;-60
2023/12/29 07:16:39;;;;;;;14.63;1.80;;;9.30;99.90;;;;;;5096074;28;20127;-59
2023/12/29 07:19:05;;;;;;;8.80;1.27;;;9.30;99.90;;;;;;5096000;28;20044;-60
2023/12/29 07:21:31;;;;;;;10.50;1.37;;;9.30;99.90;;;;;;5094927;28;20040;-60
2023/12/29 07:23:56;;;;;;;13.43;1.97;;;9.30;99.90;;;;;;5096054;28;20055;-60
2023/12/29 07:26:22;;;;;;;11.23;1.70;;;9.30;99.90;;;;;;5095131;28;20075;-61
2023/12/29 07:28:47;;;;;;;11.87;2.03;;;9.30;99.90;;;;;;5095762;28;20064;-60
2023/12/29 07:31:13;;;;;;;13.37;1.63;;;9.30;99.90;;;;;;5094696;28;20048;-60
2023/12/29 07:33:39;;;;;;;10.17;1.53;;;9.30;99.90;;;;;;5095924;28;20039;-60
2023/12/29 07:36:05;;;;;;;10.77;1.77;;;9.40;99.90;;;;;;5095684;28;20047;-60
2023/12/29 07:38:31;;;;;;;12.53;1.97;;;9.40;99.90;;;;;;5096280;28;20079;-59
2023/12/29 07:40:56;;;;;;;6.67;1.40;;;9.50;99.90;;;;;;5095823;28;20054;-60
2023/12/29 07:43:22;;;;;;;7.07;1.43;;;9.50;99.90;;;;;;5095519;28;20097;-60
2023/12/29 07:45:47;;;;;;;11.87;2.57;;;9.40;99.90;;;;;;5095562;28;20050;-59
2023/12/29 07:48:13;;;;;;;10.97;1.70;;;9.40;99.90;;;;;;5095659;28;20040;-59
2023/12/29 07:50:39;;;;;;;10.47;2.40;;;9.40;99.90;;;;;;5095419;28;20055;-59
2023/12/29 07:53:06;;;;;;;9.40;1.37;;;9.40;99.90;;;;;;5096251;28;20054;-59
2023/12/29 07:55:32;;;;;;;10.77;2.40;;;9.30;99.90;;;;;;5095290;28;20502;-60
2023/12/29 07:57:57;;;;;;;12.77;2.70;;;9.30;99.90;;;;;;5095791;28;20048;-62
2023/12/29 08:00:24;;;;;;;11.17;2.47;;;9.30;99.90;;;;;;5095452;28;20054;-60
2023/12/29 08:02:50;;;;;;;11.93;1.80;;;9.30;99.90;;;;;;5095309;28;20131;-59
2023/12/29 08:05:16;;;;;;;11.23;2.30;;;9.30;99.90;;;;;;5095036;28;20494;-59
2023/12/29 08:07:42;;;;;;;10.10;2.50;;;9.30;99.90;;;;;;5095195;28;20054;-60
2023/12/29 08:10:09;;;;;;;12.35;2.30;;;9.30;99.90;;;;;;5095219;28;20047;-60
2023/12/29 08:12:35;;;;;;;11.05;1.33;;;9.30;99.90;;;;;;5095644;28;20066;-60
2023/12/29 08:15:02;;;;;;;8.68;1.77;;;9.30;99.90;;;;;;5094563;28;20040;-60
2023/12/29 08:17:28;;;;;;;14.13;1.92;;;9.40;99.90;;;;;;5093860;28;20048;-60
2023/12/29 08:19:54;;;;;;;16.13;3.45;;;9.40;99.90;;;;;;5094864;28;20048;-61
2023/12/29 08:22:20;;;;;;;9.90;1.50;;;9.40;99.90;;;;;;5094868;28;20517;-60
2023/12/29 08:24:46;;;;;;;10.63;1.97;;;9.40;99.90;;;;;;5095041;28;20087;-61
2023/12/29 08:27:13;;;;;;;11.93;1.73;;;9.50;99.90;;;;;;5094701;28;20298;-60
2023/12/29 08:29:38;;;;;;;11.52;1.70;;;9.50;99.90;;;;;;5094951;28;20063;-61
2023/12/29 08:32:05;;;;;;;8.88;1.75;;;9.50;99.90;;;;;;5094720;28;20125;-61
2023/12/29 08:34:30;;;;;;;11.73;2.00;;;9.50;99.90;;;;;;5094606;28;20556;-62
2023/12/29 08:36:56;;;;;;;10.80;2.33;;;9.50;99.90;;;;;;5094776;28;20048;-61
2023/12/29 08:39:22;;;;;;;8.80;1.57;;;9.50;99.90;;;;;;5095059;28;20047;-61
2023/12/29 08:41:49;;;;;;;7.82;2.13;;;9.50;99.90;;;;;;5094657;28;20063;-61
2023/12/29 08:44:15;;;;;;;13.20;1.50;;;9.50;99.90;;;;;;5094509;28;20048;-60
2023/12/29 08:46:41;;;;;;;7.78;2.05;;;9.60;99.90;;;;;;5093399;28;20044;-61
2023/12/29 08:49:07;;;;;;;9.32;1.33;;;9.60;99.90;;;;;;5093079;28;20376;-60
2023/12/29 08:51:33;;;;;;;11.93;1.40;;;9.60;99.90;;;;;;5093233;28;20076;-60
2023/12/29 08:53:59;;;;;;;13.38;2.10;;;9.60;99.90;;;;;;5094411;28;20048;-60
2023/12/29 08:56:25;;;;;;;13.20;2.57;;;9.60;99.90;;;;;;5094336;28;20044;-59
2023/12/29 08:58:50;;;;;;;9.95;1.20;;;9.60;99.90;;;;;;5094259;28;20475;-61
2023/12/29 09:01:16;;;;;;;12.10;2.00;;;9.60;99.90;;;;;;5094457;28;20044;-61
2023/12/29 09:03:42;;;;;;;8.23;1.47;;;9.60;99.90;;;;;;5092779;28;20048;-60
2023/12/29 09:06:08;;;;;;;7.73;1.47;;;9.60;99.90;;;;;;5094190;28;20048;-61
2023/12/29 09:08:35;;;;;;;14.73;1.50;;;9.60;99.90;;;;;;5093198;28;20051;-59
2023/12/29 09:11:01;;;;;;;9.82;1.67;;;9.60;99.90;;;;;;5094070;28;20055;-60
2023/12/29 09:13:26;;;;;;;14.38;2.45;;;9.60;99.90;;;;;;5094186;28;20040;-60
2023/12/29 09:15:54;;;;;;;7.13;1.30;;;9.60;99.90;;;;;;5094060;28;20407;-60
2023/12/29 09:18:19;;;;;;;10.38;1.40;;;9.60;99.90;;;;;;5093893;28;20461;-59
2023/12/29 09:20:45;;;;;;;14.30;1.77;;;9.60;99.90;;;;;;5092936;28;20088;-61
2023/12/29 09:23:11;;;;;;;8.60;1.60;;;9.60;99.90;;;;;;5093943;28;20044;-60
2023/12/29 09:25:37;;;;;;;11.80;2.63;;;9.60;99.90;;;;;;5093042;28;20102;-60
2023/12/29 09:28:03;;;;;;;10.35;1.50;;;9.60;99.90;;;;;;5093826;28;20052;-60
2023/12/29 09:30:28;;;;;;;9.05;2.03;;;9.60;99.90;;;;;;5094002;28;20095;-59
2023/12/29 09:32:54;;;;;;;12.87;1.90;;;9.60;99.90;;;;;;5093578;28;20051;-60
2023/12/29 09:35:20;;;;;;;12.37;1.63;;;9.60;99.90;;;;;;5093886;28;20372;-60
2023/12/29 09:37:48;;;;;;;12.48;2.20;;;9.70;99.90;;;;;;5093743;28;20044;-61
2023/12/29 09:40:14;;;;;;;6.35;1.23;;;9.70;99.90;;;;;;5092795;28;20056;-61
2023/12/29 09:42:44;;;;;;;9.33;1.37;;;9.70;99.90;;;;;;5093804;28;20048;-60
2023/12/29 09:45:12;;;;;;;13.05;2.78;;;9.70;99.90;;;;;;5093601;28;20286;-61
2023/12/29 09:47:39;;;;;;;7.40;1.27;;;9.80;99.90;;;;;;5092316;28;20052;-61
2023/12/29 09:50:07;;;;;;;9.38;2.38;;;9.80;99.90;;;;;;5093876;28;20479;-60
2023/12/29 09:52:34;;;;;;;9.55;1.30;;;9.80;99.90;;;;;;5093666;28;20048;-61
2023/12/29 09:55:00;;;;;;;11.82;1.15;;;9.80;99.90;;;;;;5093723;28;20040;-61
2023/12/29 09:57:27;;;;;;;13.70;2.67;;;9.80;99.90;;;;;;5092768;28;20439;-61
2023/12/29 09:59:54;;;;;;;;;;;9.80;99.90;;;;;;5093936;28;20048;-59
2023/12/29 10:02:23;;;;;;;9.20;1.38;;;9.80;99.90;;;;;;5093692;28;19928;-61
2023/12/29 10:04:49;;;;;;;9.80;1.30;;;9.80;99.90;;;;;;5093547;28;20051;-60
2023/12/29 10:07:22;;;;;;;7.47;1.93;;;9.90;99.90;;;;;;5126450;27;20044;-60
2023/12/29 10:09:52;;;;;;;9.30;1.00;;;9.80;99.90;;;;;;5093643;28;20461;-62
2023/12/29 10:12:19;;;;;;;10.73;1.73;;;9.90;99.90;;;;;;5093391;28;20044;-59
2023/12/29 10:14:54;;;;;;;;;;;9.90;99.90;;;;;;5093103;28;20047;-61
2023/12/29 10:17:55;;;;;;;10.93;1.52;;;9.90;99.90;;;;;;5093479;28;19963;-61
2023/12/29 10:20:30;;;;;;;9.93;1.42;;;9.90;99.90;;;;;;5079961;28;20087;-61
2023/12/29 10:23:16;;;;;;;7.13;1.25;;;9.90;99.90;;;;;;5093262;28;20058;-60
2023/12/29 10:25:42;;;;;;;14.05;1.10;;;10.00;99.90;;;;;;5093357;28;20051;-61
2023/12/29 10:28:10;;;;;;;13.30;1.50;;;9.90;99.90;;;;;;5093606;28;20060;-61
2023/12/29 10:30:40;;;;;;;9.73;1.48;;;9.90;99.90;;;;;;5093406;28;20048;-61
2023/12/29 10:33:05;;;;;;;5.90;1.33;;;10.00;99.90;;;;;;5093240;28;20459;-61
2023/12/29 10:35:33;;;;;;;11.73;1.50;;;9.90;99.90;;;;;;5092943;28;20126;-61
2023/12/29 10:38:19;;;;;;;8.25;1.20;;;10.00;99.90;;;;;;5096291;28;20043;-61
2023/12/29 10:40:45;;;;;;;8.82;1.42;;;10.00;99.90;;;;;;5096665;28;20095;-61
2023/12/29 10:43:10;;;;;;;5.90;1.02;;;10.00;99.90;;;;;;5096977;28;20051;-64
2023/12/29 10:45:36;;;;;;;7.43;0.97;;;10.00;99.90;;;;;;5096953;28;20043;-62
2023/12/29 10:48:02;;;;;;;9.43;1.27;;;10.00;99.90;;;;;;5096562;28;20113;-61
2023/12/29 10:50:28;;;;;;;5.72;1.02;;;10.00;99.90;;;;;;5095917;28;20536;-61
2023/12/29 10:53:13;;;;;;;10.18;1.40;;;9.90;99.90;;;;;;5096737;28;20044;-63
2023/12/29 10:55:39;;;;;;;7.25;1.13;;;9.90;99.90;;;;;;5096623;28;20536;-60
2023/12/29 10:58:05;;;;;;;13.17;2.07;;;9.90;99.90;;;;;;5096698;28;20044;-61
2023/12/29 11:00:35;;;;;;;10.48;1.23;;;9.80;99.90;;;;;;5096629;28;20369;-62
2023/12/29 11:03:01;;;;;;;8.10;0.98;;;9.80;99.90;;;;;;5096573;28;20043;-62
2023/12/29 11:05:27;;;;;;;7.72;1.23;;;9.90;99.90;;;;;;5096557;28;20040;-60
2023/12/29 11:07:54;;;;;;;4.90;1.02;;;9.80;99.90;;;;;;5096246;28;20047;-60
2023/12/29 11:10:21;;;;;;;8.68;1.73;;;9.80;99.90;;;;;;5095247;28;20164;-60
2023/12/29 11:12:48;;;;;;;9.77;1.83;;;9.80;99.90;;;;;;5096363;28;20048;-61
2023/12/29 11:15:14;;;;;;;;;;;9.80;99.90;;;;;;5096700;28;20059;-61
2023/12/29 11:17:52;;;;;;;8.80;1.25;;;9.80;99.90;;;;;;5096332;28;19920;-61
2023/12/29 11:20:19;;;;;;;6.15;1.05;;;9.80;99.90;;;;;;5096217;28;20043;-61
2023/12/29 11:22:47;;;;;;;9.82;1.10;;;9.70;99.90;;;;;;5096255;28;20105;-61
2023/12/29 11:25:15;;;;;;;7.82;0.75;;;9.70;99.90;;;;;;5096178;28;20048;-60
2023/12/29 11:27:41;;;;;;;4.68;0.80;;;9.70;99.90;;;;;;5094322;28;20110;-60
2023/12/29 11:30:09;;;;;;;6.00;0.80;;;9.70;99.90;;;;;;5096359;28;20043;-60
2023/12/29 11:32:42;;;;;;;6.28;0.95;;;9.70;99.90;;;;;;5095084;28;20047;-61
2023/12/29 11:35:19;;;;;;;8.88;1.00;;;9.70;99.90;;;;;;5095889;28;20062;-61
2023/12/29 11:37:51;;;;;;;7.00;1.17;;;9.70;99.90;;;;;;5095788;28;20044;-61
2023/12/29 11:40:25;;;;;;;6.68;1.00;;;9.60;99.90;;;;;;5095630;28;20109;-61
2023/12/29 11:42:57;;;;;;;6.32;1.00;;;9.60;99.90;;;;;;5095750;28;20514;-60
2023/12/29 11:45:34;;;;;;;5.85;0.90;;;9.60;99.90;;;;;;5095851;28;20048;-61
2023/12/29 11:48:02;;;;;;;9.18;1.25;;;9.60;99.90;;;;;;5094761;28;20046;-61
2023/12/29 11:50:30;;;;;;;7.20;1.10;;;9.70;99.90;;;;;;5095473;28;20051;-61
2023/12/29 11:52:56;;;;;;;7.80;1.13;;;9.70;99.90;;;;;;5095406;28;20056;-62
2023/12/29 11:55:27;;;;;;;9.27;1.33;;;9.60;99.90;;;;;;5095828;28;20101;-61
2023/12/29 11:57:53;;;;;;;7.03;1.33;;;9.60;99.90;;;;;;5096025;28;20117;-61
2023/12/29 12:00:19;;;;;;;6.83;0.93;;;9.60;99.90;;;;;;5095625;28;20495;-62
2023/12/29 12:02:44;;;;;;;5.83;1.10;;;9.70;99.90;;;;;;5095287;28;20561;-61
2023/12/29 12:05:11;;;;;;;7.10;1.20;;;9.80;99.90;;;;;;5095112;28;20494;-61
2023/12/29 12:07:56;;;;;;;9.15;1.30;;;9.80;99.90;;;;;;5093863;28;20040;-60
2023/12/29 12:10:32;;;;;;;7.53;0.90;;;9.90;99.90;;;;;;5095654;28;20094;-61
2023/12/29 12:12:59;;;;;;;8.20;0.90;;;10.00;99.90;;;;;;5094508;28;20558;-60
2023/12/29 12:15:30;;;;;;;;;;;10.00;99.90;;;;;;5095626;28;20519;-61
2023/12/29 12:18:00;;;;;;;5.95;1.08;;;10.00;99.90;;;;;;5095165;28;19927;-60
2023/12/29 12:20:28;;;;;;;6.65;0.93;;;10.10;99.90;;;;;;5095851;28;20040;-61
2023/12/29 12:23:33;;;;;;;3.80;0.57;;;10.10;99.90;;;;;;5095052;28;20178;-63
2023/12/29 12:26:01;;;;;;;6.40;0.90;;;10.10;99.90;;;;;;5060729;28;20060;-61
2023/12/29 12:28:27;;;;;;;6.40;1.17;;;10.10;99.90;;;;;;5094899;28;20063;-60
2023/12/29 12:31:05;;;;;;;6.90;0.93;;;10.10;99.90;;;;;;5094711;28;20467;-60
2023/12/29 12:33:30;;;;;;;5.78;0.90;;;10.00;99.90;;;;;;5094679;28;20532;-62
2023/12/29 12:36:00;;;;;;;8.70;1.17;;;9.90;99.90;;;;;;5094781;28;20134;-60
2023/12/29 12:38:27;;;;;;;7.38;1.05;;;9.90;99.90;;;;;;5094594;28;20048;-60
2023/12/29 12:40:52;;;;;;;;;;;9.80;99.90;;;;;;5095061;28;20436;-61
2023/12/29 12:43:18;;;;;;;5.90;0.80;;;9.80;99.90;;;;;;5094599;28;19923;-59
2023/12/29 12:45:53;;;;;;;7.40;1.00;;;9.80;99.90;;;;;;5094529;28;20048;-60
2023/12/29 12:48:30;;;;;;;6.53;0.77;;;9.80;99.90;;;;;;5094819;28;20062;-61
2023/12/29 12:50:57;;;;;;;6.80;0.80;;;9.80;99.90;;;;;;5094509;28;20052;-61
2023/12/29 12:53:23;;;;;;;5.80;0.70;;;9.60;99.90;;;;;;5093451;28;20044;-59